Time;durP1;ratioP1;P1;durP2;ratioP2;P2;SDS_P1;SDS_P2;PMS_P1;PMS_P2;Temp;Humidity;BMP_temperature;BMP_pressure;BME280_temperature;BME280_humidity;BME280_pressure;Samples;Min_cycle;Max_cycle;Signal;HPM_P1;HPM_P2
2022/12/15 05:33:58;;;;;;;;;48.33;42.33;;;;;2.65;55.31;100195.47;5014049;28;45442;-69
2022/12/15 05:36:23;;;;;;;;;72.33;54.67;;;;;2.53;55.23;100191.34;5012199;28;45597;-70
2022/12/15 05:38:50;;;;;;;;;62.33;52.33;;;;;2.69;55.12;100220.97;5013499;28;46018;-70
2022/12/15 05:41:17;;;;;;;;;61.67;52.67;;;;;2.45;55.32;100189.75;5014471;28;45761;-69
2022/12/15 05:43:43;;;;;;;;;72.67;54.33;;;;;2.62;55.44;100220.25;5022349;28;45467;-70
2022/12/15 05:46:08;;;;;;;;;68.33;50.00;;;;;2.62;55.83;100222.03;5017415;28;45335;-71
2022/12/15 05:48:34;;;;;;;;;60.67;48.67;;;;;2.63;55.24;100221.13;5015214;28;45510;-69
2022/12/15 05:51:04;;;;;;;;;73.33;53.00;;;;;2.57;55.84;100222.09;5013003;28;45373;-68
2022/12/15 05:53:30;;;;;;;;;69.00;54.00;;;;;2.60;55.51;100222.03;5014639;28;45541;-70
2022/12/15 05:56:08;;;;;;;;;60.67;51.67;;;;;2.62;55.26;100227.31;5013882;28;45431;-71
2022/12/15 05:58:33;;;;;;;;;66.33;53.00;;;;;2.55;55.18;100217.78;5013461;28;45410;-69
2022/12/15 06:01:04;;;;;;;;;63.33;44.00;;;;;2.59;55.16;100241.47;5011877;28;45380;-73
2022/12/15 06:03:30;;;;;;;;;67.33;56.00;;;;;2.51;55.60;100226.66;5015316;28;45341;-73
2022/12/15 06:05:55;;;;;;;;;67.33;53.67;;;;;2.58;55.40;100241.50;5015719;28;45391;-70
2022/12/15 06:08:22;;;;;;;;;65.67;52.33;;;;;2.54;55.47;100234.53;5015437;28;46472;-70
2022/12/15 06:10:54;;;;;;;;;66.67;52.33;;;;;2.50;55.37;100227.56;5012437;28;45407;-71
2022/12/15 06:13:20;;;;;;;;;63.33;50.00;;;;;2.55;55.32;100238.94;5015185;28;45435;-71
2022/12/15 06:16:00;;;;;;;;;64.00;51.67;;;;;2.53;55.26;100223.09;5014473;28;45329;-69
2022/12/15 06:18:29;;;;;;;;;64.00;50.67;;;;;2.58;54.99;100233.56;5014235;28;46310;-69
2022/12/15 06:21:07;;;;;;;;;64.00;51.00;;;;;2.54;55.56;100234.53;5015368;28;45313;-71
2022/12/15 06:23:33;;;;;;;;;67.00;50.00;;;;;2.50;55.70;100225.78;5015482;28;45369;-70
2022/12/15 06:26:06;;;;;;;;;56.00;48.00;;;;;2.55;55.45;100231.84;5015366;28;45402;-75
2022/12/15 06:28:32;;;;;;;;;63.67;52.00;;;;;2.59;55.11;100246.75;4996684;28;47236;-67
2022/12/15 06:31:01;;;;;;;;;62.67;51.67;;;;;2.61;54.91;100241.44;5018666;28;45458;-67
2022/12/15 06:33:28;;;;;;;;;72.67;55.67;;;;;2.38;55.13;100202.25;5053101;28;45406;-71
2022/12/15 06:35:54;;;;;;;;;64.67;50.00;;;;;2.60;55.42;100245.88;5054325;28;45540;-71
2022/12/15 06:38:19;;;;;;;;;74.00;52.67;;;;;2.62;55.23;100238.78;5055302;28;46164;-67
2022/12/15 06:40:44;;;;;;;;;77.67;57.67;;;;;2.60;55.42;100237.94;5054917;28;45237;-69
2022/12/15 06:43:10;;;;;;;;;57.67;49.33;;;;;2.60;55.77;100245.00;5057741;28;45631;-69
2022/12/15 06:45:35;;;;;;;;;65.33;50.00;;;;;2.56;55.39;100241.53;5042559;28;45987;-69
2022/12/15 06:48:01;;;;;;;;;68.00;51.33;;;;;2.57;55.93;100242.41;5053347;28;47104;-70
2022/12/15 06:50:26;;;;;;;;;68.67;51.00;;;;;2.54;55.41;100243.34;5050689;28;45459;-70
2022/12/15 06:52:52;;;;;;;;;54.67;46.33;;;;;2.40;55.90;100221.59;5052579;28;45615;-69
2022/12/15 06:55:17;;;;;;;;;65.00;53.67;;;;;2.56;55.58;100243.28;5054677;28;45433;-75
2022/12/15 06:57:46;;;;;;;;;61.67;49.00;;;;;2.59;55.35;100253.81;5054526;28;45917;-69
2022/12/15 07:00:12;;;;;;;;;62.33;48.67;;;;;2.62;55.55;100264.34;5036535;28;45550;-69
2022/12/15 07:02:38;;;;;;;;;60.67;51.67;;;;;2.63;55.79;100269.63;5054116;28;45514;-71
2022/12/15 07:05:04;;;;;;;;;63.00;53.33;;;;;2.61;55.84;100258.19;5054688;28;45407;-70
2022/12/15 07:07:30;;;;;;;;;59.67;47.00;;;;;2.63;55.33;100251.09;5053180;28;45354;-71
2022/12/15 07:09:55;;;;;;;;;64.33;54.33;;;;;2.64;56.99;100246.66;5053822;28;45553;-69
2022/12/15 07:12:21;;;;;;;;;59.67;46.67;;;;;2.69;56.75;100254.50;5053636;28;45461;-72
2022/12/15 07:14:46;;;;;;;;;69.00;54.67;;;;;2.77;56.52;100258.72;5052516;28;45497;-73
2022/12/15 07:17:11;;;;;;;;;63.00;52.00;;;;;2.81;56.07;100262.16;5053137;28;45948;-72
2022/12/15 07:19:37;;;;;;;;;52.67;42.00;;;;;2.81;55.91;100273.63;5054392;28;45354;-72
2022/12/15 07:22:02;;;;;;;;;69.67;52.33;;;;;2.72;55.97;100249.16;5054512;28;45573;-71
2022/12/15 07:24:27;;;;;;;;;66.33;52.33;;;;;2.88;55.56;100283.19;5054345;28;45393;-72
2022/12/15 07:26:53;;;;;;;;;63.00;50.33;;;;;2.77;55.34;100268.44;5053909;28;45313;-71
2022/12/15 07:29:19;;;;;;;;;69.67;54.33;;;;;2.85;55.08;100279.72;5054046;28;45356;-72
2022/12/15 07:31:44;;;;;;;;;63.00;51.00;;;;;2.79;54.94;100286.03;5053872;28;45546;-71
2022/12/15 07:34:10;;;;;;;;;62.67;48.33;;;;;2.78;54.12;100294.00;5054978;28;45330;-75
2022/12/15 07:36:36;;;;;;;;;68.00;54.00;;;;;2.62;54.57;100274.94;5056004;28;45406;-76
2022/12/15 07:39:03;;;;;;;;;62.33;52.33;;;;;2.65;55.08;100306.63;5054215;28;45418;-73
2022/12/15 07:41:29;;;;;;;;;59.33;45.67;;;;;2.65;55.25;100309.25;5054296;28;45331;-73
2022/12/15 07:43:55;;;;;;;;;67.00;55.33;;;;;2.70;55.09;100314.47;5064267;28;45564;-71
2022/12/15 07:46:22;;;;;;;;;71.33;55.67;;;;;2.58;54.70;100291.78;5054893;28;47315;-73
2022/12/15 07:48:48;;;;;;;;;67.00;54.00;;;;;2.69;54.80;100302.16;5054305;28;45379;-70
2022/12/15 07:51:14;;;;;;;;;64.00;48.67;;;;;2.65;54.75;100302.19;5049073;28;45489;-72
2022/12/15 07:53:39;;;;;;;;;67.67;53.00;;;;;2.65;54.56;100304.84;5054229;28;45772;-72
2022/12/15 07:56:05;;;;;;;;;62.00;46.67;;;;;2.63;54.89;100287.28;5035809;28;46171;-71
2022/12/15 07:58:31;;;;;;;;;62.00;53.67;;;;;2.75;54.87;100304.66;5054210;28;45375;-72
2022/12/15 08:01:02;;;;;;;;;69.67;50.00;;;;;2.75;54.42;100299.34;5054078;28;45422;-76
2022/12/15 08:03:28;;;;;;;;;68.67;55.00;;;;;2.83;54.38;100310.66;5054185;28;45513;-78
2022/12/15 08:05:54;;;;;;;;;64.00;52.33;;;;;2.81;54.18;100312.44;5053908;28;46197;-75
2022/12/15 08:08:21;;;;;;;;;66.67;49.00;;;;;2.87;54.25;100326.47;5028725;28;46091;-75
2022/12/15 08:10:46;;;;;;;;;66.33;51.00;;;;;2.86;54.25;100337.94;5051787;28;45367;-74
2022/12/15 08:13:13;;;;;;;;;59.67;48.33;;;;;2.95;54.39;100343.03;5053095;28;45506;-72
2022/12/15 08:15:38;;;;;;;;;74.00;58.00;;;;;2.96;53.61;100351.88;5053198;28;45327;-74
2022/12/15 08:18:05;;;;;;;;;61.67;49.33;;;;;2.99;54.06;100351.78;5052736;28;45450;-75
2022/12/15 08:20:31;;;;;;;;;63.33;50.00;;;;;2.96;53.89;100342.16;5052771;28;45556;-75
2022/12/15 08:22:57;;;;;;;;;59.67;49.00;;;;;2.99;53.26;100346.47;5054457;28;45498;-74
2022/12/15 08:25:23;;;;;;;;;67.33;52.33;;;;;2.89;53.92;100329.91;5036503;28;46608;-76
2022/12/15 08:27:51;;;;;;;;;68.00;55.00;;;;;2.96;53.59;100338.63;5053391;28;45399;-76
2022/12/15 08:30:17;;;;;;;;;66.33;53.67;;;;;3.04;53.29;100355.22;5053956;28;45252;-75
2022/12/15 08:32:44;;;;;;;;;68.33;54.00;;;;;3.09;53.48;100363.91;5053994;28;45387;-73
2022/12/15 08:35:11;;;;;;;;;68.00;55.00;;;;;2.98;53.25;100336.78;5054003;28;45455;-76
2022/12/15 08:37:36;;;;;;;;;65.33;53.67;;;;;3.14;53.46;100354.13;5054735;28;45407;-75
2022/12/15 08:40:03;;;;;;;;;70.33;53.67;;;;;3.18;53.94;100358.44;5053445;28;45600;-73
2022/12/15 08:42:32;;;;;;;;;74.33;56.00;;;;;3.09;53.49;100333.91;5056205;28;45489;-75
2022/12/15 08:44:58;;;;;;;;;59.33;51.67;;;;;3.20;53.33;100340.72;5068134;28;46550;-75
2022/12/15 08:47:24;;;;;;;;;68.00;53.33;;;;;3.10;52.87;100320.66;5056300;28;45386;-76
2022/12/15 08:49:49;;;;;;;;;62.33;53.67;;;;;3.29;53.21;100343.19;5057071;28;45548;-74
2022/12/15 08:52:14;;;;;;;;;65.00;54.33;;;;;3.30;52.65;100344.06;5051344;28;45444;-75
2022/12/15 08:54:40;;;;;;;;;64.33;53.00;;;;;3.26;52.36;100337.06;5056720;28;45345;-75
2022/12/15 08:57:05;;;;;;;;;68.00;56.33;;;;;3.24;52.77;100330.91;5056472;28;45328;-76
2022/12/15 08:59:30;;;;;;;;;70.00;53.33;;;;;3.32;52.50;100344.88;5038322;28;45539;-76
2022/12/15 09:01:56;;;;;;;;;17.67;16.33;;;;;3.36;51.79;100331.53;5056712;28;45454;-73
2022/12/15 09:04:21;;;;;;;;;58.33;45.67;;;;;3.40;52.12;100342.94;5056572;28;46980;-75
2022/12/15 09:06:46;;;;;;;;;60.00;51.33;;;;;3.43;52.31;100342.84;5056962;28;45253;-75
2022/12/15 09:09:12;;;;;;;;;66.33;53.67;;;;;3.35;52.41;100318.31;5056406;28;45328;-75
2022/12/15 09:11:38;;;;;;;;;58.00;46.67;;;;;3.48;52.24;100345.41;5056906;28;45426;-74
2022/12/15 09:14:05;;;;;;;;;72.00;58.33;;;;;3.37;52.29;100316.50;5036365;28;46973;-75
2022/12/15 09:16:30;;;;;;;;;61.00;52.33;;;;;3.61;52.05;100352.16;5032451;28;45389;-75
2022/12/15 09:18:57;;;;;;;;;69.33;53.33;;;;;3.67;51.92;100357.28;5057247;28;45367;-75
2022/12/15 09:21:26;;;;;;;;;68.67;53.67;;;;;3.72;51.91;100352.78;5056628;28;45517;-73
2022/12/15 09:23:54;;;;;;;;;75.67;54.33;;;;;3.79;51.12;100360.53;5056527;28;45397;-74
2022/12/15 09:26:22;;;;;;;;;65.67;52.33;;;;;3.82;51.00;100354.28;5056353;28;45414;-76
2022/12/15 09:28:48;;;;;;;;;71.33;54.67;;;;;3.84;50.88;100355.09;5056730;28;45405;-75
2022/12/15 09:31:16;;;;;;;;;65.33;49.33;;;;;3.91;50.89;100362.03;5038027;28;46046;-74
2022/12/15 09:33:42;;;;;;;;;71.00;55.00;;;;;3.88;50.41;100354.13;5056109;28;45347;-75
2022/12/15 09:36:09;;;;;;;;;65.67;54.00;;;;;3.95;50.42;100368.97;5038346;28;45418;-76
2022/12/15 09:38:39;;;;;;;;;67.00;53.67;;;;;3.89;50.80;100352.34;5056802;28;45421;-76
2022/12/15 09:41:21;;;;;;;;;57.00;48.33;;;;;4.05;51.00;100374.94;5038090;28;45447;-77
2022/12/15 09:44:16;;;;;;;;;71.33;57.00;;;;;4.08;51.06;100373.06;5065586;28;45990;-75
2022/12/15 09:47:04;;;;;;;;;63.33;52.00;;;;;4.13;50.78;100389.75;5044695;28;45336;-75
2022/12/15 09:49:59;;;;;;;;;67.33;56.33;;;;;4.13;50.01;100389.75;5056060;28;45439;-74
2022/12/15 09:52:30;;;;;;;;;67.33;51.67;;;;;4.18;50.31;100385.19;5051146;28;45320;-76
2022/12/15 09:54:57;;;;;;;;;68.00;54.00;;;;;4.23;50.64;100384.19;5055912;28;45482;-74
2022/12/15 09:57:35;;;;;;;;;66.67;50.33;;;;;4.30;50.39;100394.63;5055821;28;45186;-76
2022/12/15 10:00:12;;;;;;;;;64.00;51.00;;;;;4.37;50.00;100390.00;5056364;28;45556;-74
2022/12/15 10:02:56;;;;;;;;;67.33;53.33;;;;;4.41;49.81;100389.03;5055692;28;45451;-75
2022/12/15 10:05:52;;;;;;;;;70.33;54.00;;;;;4.45;50.10;100383.59;5055444;28;46282;-74
2022/12/15 10:08:19;;;;;;;;;63.33;53.00;;;;;4.33;49.83;100353.88;5056485;28;45454;-74
2022/12/15 10:10:56;;;;;;;;;64.67;53.67;;;;;4.41;49.88;100365.16;5057285;28;45308;-74
2022/12/15 10:13:41;;;;;;;;;65.33;53.67;;;;;4.48;50.05;100375.56;5055516;28;45396;-73
2022/12/15 10:16:18;;;;;;;;;68.67;52.33;;;;;4.51;49.78;100370.16;5055651;28;46601;-75
2022/12/15 10:19:06;;;;;;;;;62.33;50.00;;;;;4.62;49.55;100369.84;5055432;28;46917;-74
2022/12/15 10:21:32;;;;;;;;;61.00;48.00;;;;;4.61;49.63;100365.47;5055676;28;45415;-75
2022/12/15 10:24:19;;;;;;;;;63.00;48.33;;;;;4.71;49.36;100360.75;5055715;28;45394;-74
2022/12/15 10:26:58;;;;;;;;;66.33;52.67;;;;;4.76;49.90;100359.75;5055392;28;46191;-74
2022/12/15 10:29:41;;;;;;;;;73.33;55.67;;;;;4.77;49.58;100358.81;5055789;28;45433;-75
2022/12/15 10:32:23;;;;;;;;;66.33;54.67;;;;;4.79;49.21;100354.31;5055361;28;45505;-76
2022/12/15 10:34:48;;;;;;;;;66.00;52.00;;;;;4.82;49.32;100356.91;5055115;28;45362;-74
2022/12/15 10:37:19;;;;;;;;;63.67;52.67;;;;;4.76;49.31;100337.63;5055624;28;45320;-74
2022/12/15 10:39:47;;;;;;;;;70.67;54.67;;;;;4.92;49.66;100362.81;5055193;28;45327;-75
2022/12/15 10:42:24;;;;;;;;;64.33;50.67;;;;;5.00;49.38;100349.31;5055216;28;45362;-75
2022/12/15 10:44:57;;;;;;;;;73.00;53.67;;;;;5.01;49.33;100330.69;5066347;28;45434;-75
2022/12/15 10:47:28;;;;;;;;;66.67;53.00;;;;;5.03;49.17;100322.63;5055261;28;45460;-76
2022/12/15 10:50:14;;;;;;;;;61.00;51.67;;;;;4.94;49.14;100286.59;5055061;28;45208;-75
2022/12/15 10:52:39;;;;;;;;;64.33;51.67;;;;;5.13;48.81;100308.16;5052389;28;45681;-74
2022/12/15 10:55:30;;;;;;;;;63.67;51.33;;;;;5.28;48.58;100305.03;5055294;28;45312;-75
2022/12/15 10:58:01;;;;;;;;;73.00;52.67;;;;;5.39;48.36;100312.69;5055178;28;45296;-76
2022/12/15 11:00:28;;;;;;;;;71.67;57.33;;;;;5.43;48.22;100303.69;5054913;28;45394;-75
2022/12/15 11:02:54;;;;;;;;;68.33;54.00;;;;;5.39;48.01;100273.66;5054685;28;45479;-75
2022/12/15 11:05:20;;;;;;;;;67.67;52.33;;;;;5.52;47.70;100290.13;5054849;28;45426;-75
2022/12/15 11:07:49;;;;;;;;;59.67;49.67;;;;;5.63;48.00;100301.25;5054870;28;46048;-75
2022/12/15 11:10:25;;;;;;;;;59.67;52.00;;;;;5.68;47.61;100286.91;5054851;28;45219;-75
2022/12/15 11:13:11;;;;;;;;;66.67;53.33;;;;;5.67;47.25;100268.31;5055083;28;45329;-74
2022/12/15 11:15:38;;;;;;;;;65.00;54.67;;;;;5.74;47.24;100263.66;5036952;28;45446;-76
2022/12/15 11:18:30;;;;;;;;;67.67;54.00;;;;;5.80;47.01;100268.75;5055266;28;45375;-74
2022/12/15 11:21:03;;;;;;;;;68.67;52.00;;;;;5.86;47.07;100268.59;5022872;28;46455;-76
2022/12/15 11:23:50;;;;;;;;;70.67;55.00;;;;;5.92;47.52;100268.41;5054844;28;45466;-75
2022/12/15 11:26:39;;;;;;;;;67.00;53.00;;;;;5.96;46.91;100268.22;5054604;28;46432;-76
2022/12/15 11:29:33;;;;;;;;;66.67;53.00;;;;;6.03;46.32;100258.25;5054256;28;45523;-76
2022/12/15 11:31:59;;;;;;;;;65.00;53.67;;;;;6.07;46.73;100258.09;5054577;28;45446;-75
2022/12/15 11:34:46;;;;;;;;;68.00;54.33;;;;;6.07;45.99;100243.91;5054645;28;45313;-74
2022/12/15 11:37:40;;;;;;;;;72.00;56.00;;;;;6.10;46.61;100245.59;5054869;28;45501;-76
2022/12/15 11:40:14;;;;;;;;;66.67;45.67;;;;;6.07;46.66;100230.59;5034125;28;46198;-75
2022/12/15 11:43:15;;;;;;;;;63.00;50.00;;;;;6.08;46.68;100230.56;5034699;28;45348;-75
2022/12/15 11:46:08;;;;;;;;;67.00;51.67;;;;;6.06;46.80;100239.50;5048933;28;45527;-74
2022/12/15 11:48:54;;;;;;;;;59.67;51.00;;;;;6.05;46.81;100229.78;5054851;28;45291;-75
2022/12/15 11:51:44;;;;;;;;;70.67;53.67;;;;;6.05;47.00;100225.31;5048854;28;45523;-75
2022/12/15 11:54:37;;;;;;;;;67.33;52.00;;;;;6.09;46.37;100228.75;5055241;28;45369;-75
2022/12/15 11:57:33;;;;;;;;;58.00;42.33;;;;;6.10;46.35;100219.00;5055554;28;45378;-73
2022/12/15 12:00:07;;;;;;;;;61.67;50.00;;;;;6.03;46.47;100213.03;5054895;28;45497;-74
2022/12/15 12:02:45;;;;;;;;;66.33;52.67;;;;;6.06;46.77;100211.09;5054234;28;45399;-74
2022/12/15 12:05:33;;;;;;;;;57.67;48.33;;;;;6.07;46.59;100212.84;5053961;28;45410;-75
2022/12/15 12:08:23;;;;;;;;;47.33;41.00;;;;;6.02;46.01;100204.16;5036130;28;45366;-74
2022/12/15 12:11:15;;;;;;;;;63.67;50.67;;;;;5.94;45.59;100189.41;5053980;28;45321;-76
2022/12/15 12:13:59;;;;;;;;;64.33;48.00;;;;;5.94;45.86;100205.38;5054063;28;45315;-75
2022/12/15 12:16:37;;;;;;;;;50.00;42.00;;;;;5.86;45.70;100202.09;5057650;28;45464;-75
2022/12/15 12:19:13;;;;;;;;;53.33;45.67;;;;;5.77;45.84;100189.97;5058104;28;45514;-75
2022/12/15 12:21:45;;;;;;;;;62.00;50.33;;;;;5.72;46.13;100183.94;5057324;28;45280;-75
2022/12/15 12:24:13;;;;;;;;;61.67;51.67;;;;;5.72;45.95;100197.22;5057343;28;45331;-76
2022/12/15 12:26:48;;;;;;;;;55.67;46.00;;;;;5.63;46.09;100189.56;5057325;28;45996;-76
2022/12/15 12:29:36;;;;;;;;;56.67;45.33;;;;;5.58;46.40;100175.56;5057616;28;45268;-74
2022/12/15 12:32:02;;;;;;;;;59.00;46.33;;;;;5.57;45.84;100177.34;5056944;28;45492;-74
2022/12/15 12:34:54;;;;;;;;;61.00;49.00;;;;;5.52;45.93;100171.34;5056929;28;46163;-75
2022/12/15 12:37:50;;;;;;;;;58.67;47.67;;;;;5.49;45.75;100171.44;5057234;28;45440;-73
2022/12/15 12:40:34;;;;;;;;;45.00;38.67;;;;;5.41;45.54;100168.19;5057294;28;45369;-75
2022/12/15 12:42:59;;;;;;;;;57.00;44.67;;;;;5.35;45.68;100165.72;5059240;28;45545;-74
2022/12/15 12:45:53;;;;;;;;;54.33;44.33;;;;;5.39;45.46;100177.13;5065695;28;46244;-75
2022/12/15 12:48:40;;;;;;;;;55.33;46.67;;;;;5.35;45.36;100170.19;5045375;28;45335;-74
2022/12/15 12:51:30;;;;;;;;;48.33;41.00;;;;;5.36;45.38;100163.94;5051995;28;45509;-73
2022/12/15 12:53:57;;;;;;;;;59.00;48.67;;;;;5.38;44.93;100168.28;5056607;28;45273;-75
2022/12/15 12:56:41;;;;;;;;;49.67;42.33;;;;;5.32;45.37;100145.44;5057055;28;45667;-73
2022/12/15 12:59:36;;;;;;;;;58.00;45.67;;;;;5.38;45.16;100160.28;5056961;28;45411;-74
2022/12/15 13:02:14;;;;;;;;;51.67;45.33;;;;;5.38;45.41;100168.28;5036746;28;45383;-76
2022/12/15 13:04:43;;;;;;;;;53.00;46.00;;;;;5.35;45.13;100163.06;5057234;28;45534;-79
2022/12/15 13:07:35;;;;;;;;;57.00;45.33;;;;;5.41;45.73;100162.00;5057206;28;45529;-78
2022/12/15 13:10:19;;;;;;;;;54.00;43.33;;;;;5.36;45.75;100155.97;5057436;28;45355;-77
2022/12/15 13:12:51;;;;;;;;;46.33;43.00;;;;;5.37;45.29;100149.72;5057153;28;45379;-76
2022/12/15 13:15:34;;;;;;;;;50.00;42.67;;;;;5.38;45.54;100154.09;5056326;28;45459;-72
2022/12/15 13:18:14;;;;;;;;;51.00;43.67;;;;;5.38;45.63;100152.31;5056588;28;45460;-72
2022/12/15 13:20:41;;;;;;;;;53.33;42.67;;;;;5.39;46.05;100155.84;5056632;28;45410;-68
2022/12/15 13:23:35;;;;;;;;;51.33;42.00;;;;;5.35;45.83;100147.13;5056468;28;45409;-68
2022/12/15 13:26:10;;;;;;;;;49.00;44.00;;;;;5.38;45.56;100157.63;5055819;28;45401;-70
2022/12/15 13:28:37;;;;;;;;;57.00;45.00;;;;;5.32;46.07;100149.88;5056092;28;45453;-67
2022/12/15 13:31:18;;;;;;;;;47.00;43.00;;;;;5.34;46.21;100153.34;5038042;28;46337;-69
2022/12/15 13:34:29;;;;;;;;;46.00;42.33;;;;;5.34;46.15;100153.34;5056374;28;45377;-70
2022/12/15 13:36:56;;;;;;;;;60.00;45.00;;;;;5.36;46.01;100156.81;5052353;28;45218;-71
2022/12/15 13:39:22;;;;;;;;;60.67;44.00;;;;;5.36;46.43;100150.66;5055984;28;46311;-70
2022/12/15 13:41:47;;;;;;;;;54.33;46.67;;;;;5.34;46.08;100148.03;5056376;28;45408;-70
2022/12/15 13:44:43;;;;;;;;;44.67;39.67;;;;;5.32;46.61;100147.22;5049388;28;45426;-71
2022/12/15 13:47:21;;;;;;;;;55.33;42.33;;;;;5.20;45.36;100129.88;5054826;28;45411;-70
2022/12/15 13:49:59;;;;;;;;;54.67;41.00;;;;;5.30;45.64;100141.94;5041511;28;47293;-69
2022/12/15 13:52:35;;;;;;;;;46.33;41.67;;;;;5.27;45.41;100136.72;5051223;28;46612;-73
2022/12/15 13:55:14;;;;;;;;;42.75;38.75;;;;;5.25;45.22;100130.63;5056099;28;45331;-69
2022/12/15 13:57:53;;;;;;;;;46.75;40.25;;;;;5.14;44.62;100124.78;5055820;28;45351;-71
2022/12/15 14:00:18;;;;;;;;;45.00;37.50;;;;;5.08;44.63;100126.78;5055820;28;45539;-70
2022/12/15 14:02:44;;;;;;;;;39.33;35.33;;;;;5.16;44.10;100132.72;5056133;28;45363;-70
2022/12/15 14:05:13;;;;;;;;;37.50;33.25;;;;;5.21;44.97;100136.06;5056276;28;45322;-71
2022/12/15 14:07:41;;;;;;;;;54.33;39.33;;;;;5.24;45.07;100134.19;5056082;28;45300;-70
2022/12/15 14:10:17;;;;;;;;;41.67;35.33;;;;;5.22;44.66;100122.75;5037388;28;46249;-69
2022/12/15 14:12:44;;;;;;;;;48.75;36.75;;;;;5.22;44.69;100120.09;5055844;28;45250;-69
2022/12/15 14:15:14;;;;;;;;;56.00;41.67;;;;;5.28;44.42;100122.53;5055905;28;45304;-70
2022/12/15 14:17:40;;;;;;;;;45.00;39.33;;;;;5.37;44.65;100125.78;5055733;28;45611;-70
2022/12/15 14:20:19;;;;;;;;;48.00;37.75;;;;;5.55;43.77;100126.03;5055765;28;45670;-69
2022/12/15 14:22:44;;;;;;;;;42.50;36.75;;;;;5.86;43.11;100120.50;5055836;28;45338;-70
2022/12/15 14:25:20;;;;;;;;;42.00;35.75;;;;;6.10;42.49;100124.06;5055413;28;45313;-69
2022/12/15 14:27:45;;;;;;;;;47.25;38.75;;;;;6.49;41.41;100115.47;5055535;28;46117;-71
2022/12/15 14:30:31;;;;;;;;;32.25;28.25;;;;;6.81;39.97;100131.88;5055326;28;45272;-69
2022/12/15 14:33:14;;;;;;;;;38.25;36.00;;;;;7.12;39.96;100142.19;5055579;28;46209;-70
2022/12/15 14:35:44;;;;;;;;;39.75;35.00;;;;;7.38;39.05;100142.91;5055368;28;45392;-70
2022/12/15 14:38:20;;;;;;;;;44.75;38.00;;;;;7.68;38.75;100146.91;5054058;28;45374;-69
2022/12/15 14:40:48;;;;;;;;;38.00;34.00;;;;;7.94;38.46;100143.94;5054984;28;46730;-68
2022/12/15 14:43:23;;;;;;;;;36.25;33.25;;;;;8.21;37.40;100149.84;5059740;28;45427;-69
2022/12/15 14:46:20;;;;;;;;;33.25;32.25;;;;;8.27;36.64;100154.91;5060172;28;45315;-69
2022/12/15 14:48:54;;;;;;;;;32.25;27.75;;;;;8.12;37.18;100139.59;5055198;28;45239;-69
2022/12/15 14:51:20;;;;;;;;;34.00;32.50;;;;;7.98;36.94;100150.91;5049503;28;45383;-70
2022/12/15 14:53:51;;;;;;;;;33.25;30.25;;;;;7.82;37.10;100149.84;5054882;28;45866;-70
2022/12/15 14:56:19;;;;;;;;;37.75;33.25;;;;;7.63;36.51;100145.38;5055108;28;45409;-68
2022/12/15 14:58:46;;;;;;;;;32.50;32.25;;;;;7.39;37.56;100141.97;5054791;28;45174;-69
2022/12/15 15:01:39;;;;;;;;;30.25;29.25;;;;;7.24;36.97;100156.78;5055264;28;45351;-70
2022/12/15 15:04:24;;;;;;;;;35.75;30.00;;;;;7.05;36.56;100166.50;5055142;28;45430;-69
2022/12/15 15:06:55;;;;;;;;;35.00;29.75;;;;;6.82;36.85;100168.25;5055322;28;45225;-69
2022/12/15 15:09:26;;;;;;;;;28.25;26.50;;;;;6.61;36.39;100162.94;5054876;28;45857;-69
2022/12/15 15:11:55;;;;;;;;;28.75;27.25;;;;;6.43;36.17;100154.72;5054953;28;46706;-70
2022/12/15 15:14:28;;;;;;;;;25.00;21.25;;;;;6.35;36.64;100175.44;5055161;28;45257;-69
2022/12/15 15:17:08;;;;;;;;;25.00;24.25;;;;;6.22;36.33;100179.47;5055157;28;45330;-69
2022/12/15 15:19:37;;;;;;;;;19.75;16.00;;;;;6.10;36.57;100174.63;5054831;28;45526;-69
2022/12/15 15:22:03;;;;;;;;;30.25;29.00;;;;;6.06;36.52;100181.84;5054306;28;45363;-68
2022/12/15 15:24:33;;;;;;;;;28.75;25.00;;;;;5.95;36.01;100185.81;5054355;28;45315;-69
2022/12/15 15:27:25;;;;;;;;;26.75;22.75;;;;;5.87;35.36;100195.84;5054492;28;45223;-69
2022/12/15 15:29:51;;;;;;;;;28.25;25.25;;;;;5.79;35.50;100200.53;5054420;28;45339;-69
2022/12/15 15:32:19;;;;;;;;;27.25;22.75;;;;;5.72;35.11;100206.06;5054398;28;46236;-71
2022/12/15 15:34:46;;;;;;;;;24.50;20.50;;;;;5.66;34.91;100208.94;5054314;28;45185;-69
2022/12/15 15:37:20;;;;;;;;;25.50;23.00;;;;;5.57;34.56;100214.59;5054662;28;45438;-70
2022/12/15 15:39:53;;;;;;;;;21.50;17.25;;;;;5.51;33.88;100216.59;5053959;28;45338;-70
2022/12/15 15:42:18;;;;;;;;;19.50;18.00;;;;;5.42;34.18;100209.78;5054403;28;45335;-69
2022/12/15 15:44:44;;;;;;;;;15.00;13.75;;;;;5.38;33.78;100218.78;5065456;28;45283;-70
2022/12/15 15:47:25;;;;;;;;;18.75;18.75;;;;;5.35;34.11;100221.56;5054498;28;45209;-72
2022/12/15 15:49:52;;;;;;;;;19.75;18.25;;;;;5.24;34.81;100215.72;5056714;28;45525;-69
2022/12/15 15:52:17;;;;;;;;;22.25;17.50;;;;;5.30;35.27;100240.28;5052616;28;46250;-71
2022/12/15 15:54:44;;;;;;;;;21.50;20.50;;;;;5.26;34.78;100227.16;5057567;28;45280;-70
2022/12/15 15:57:14;;;;;;;;;15.25;15.25;;;;;5.24;35.02;100243.16;5057643;28;45331;-69
2022/12/15 15:59:41;;;;;;;;;23.50;20.25;;;;;5.20;35.63;100241.50;5057859;28;45538;-69
2022/12/15 16:02:08;;;;;;;;;21.00;19.25;;;;;5.19;36.38;100250.38;5039583;28;47985;-69
2022/12/15 16:04:35;;;;;;;;;20.25;15.50;;;;;5.17;36.17;100248.72;5057810;28;45323;-69
2022/12/15 16:07:03;;;;;;;;;24.00;20.00;;;;;5.16;36.66;100249.63;5040024;28;45281;-69
2022/12/15 16:09:29;;;;;;;;;16.75;14.00;;;;;5.15;36.66;100254.06;5039405;28;45334;-69
2022/12/15 16:11:54;;;;;;;;;27.00;22.50;;;;;5.12;36.89;100256.81;5057140;28;45371;-69
2022/12/15 16:14:20;;;;;;;;;29.50;22.75;;;;;5.09;36.87;100261.38;5057561;28;45550;-71
2022/12/15 16:16:45;;;;;;;;;21.25;21.25;;;;;5.08;37.81;100268.47;5057575;28;45435;-69
2022/12/15 16:19:12;;;;;;;;;22.50;21.75;;;;;5.04;38.03;100274.78;5057655;28;45388;-69
2022/12/15 16:21:39;;;;;;;;;19.25;18.50;;;;;4.92;39.29;100256.59;5057382;28;46526;-70
2022/12/15 16:24:12;;;;;;;;;25.75;25.75;;;;;5.02;39.41;100283.75;5057434;28;45364;-69
2022/12/15 16:26:42;;;;;;;;;26.50;26.50;;;;;4.95;39.84;100281.25;5057442;28;45376;-70
2022/12/15 16:29:15;;;;;;;;;27.50;21.50;;;;;4.99;40.51;100284.69;5057254;28;45460;-70
2022/12/15 16:31:44;;;;;;;;;24.50;22.25;;;;;5.00;41.63;100294.41;5056731;28;46075;-69
2022/12/15 16:34:12;;;;;;;;;27.25;21.00;;;;;4.95;41.89;100299.84;5057177;28;45529;-68
2022/12/15 16:36:39;;;;;;;;;21.50;21.50;;;;;4.90;41.88;100293.81;5057192;28;45167;-70
2022/12/15 16:39:22;;;;;;;;;35.75;25.75;;;;;4.92;42.65;100304.41;5055659;28;45593;-68
2022/12/15 16:41:47;;;;;;;;;21.50;21.00;;;;;4.93;42.73;100320.25;5045562;28;46233;-68
2022/12/15 16:44:13;;;;;;;;;29.25;25.25;;;;;4.92;43.75;100310.56;5067964;28;45493;-70
2022/12/15 16:46:38;;;;;;;;;32.50;28.00;;;;;4.93;44.33;100309.63;5057467;28;45439;-71
2022/12/15 16:49:04;;;;;;;;;31.00;26.50;;;;;4.94;44.74;100315.81;5056873;28;45414;-73
2022/12/15 16:51:37;;;;;;;;;29.25;27.75;;;;;4.98;45.24;100313.94;5051573;28;46309;-72
2022/12/15 16:54:03;;;;;;;;;28.25;25.75;;;;;4.91;45.93;100307.97;5056620;28;45477;-73
2022/12/15 16:56:28;;;;;;;;;25.75;25.50;;;;;4.91;46.36;100307.97;5057032;28;45260;-72
2022/12/15 16:58:55;;;;;;;;;29.50;29.50;;;;;4.94;46.89;100310.50;5056579;28;45143;-71
2022/12/15 17:01:21;;;;;;;;;31.00;31.00;;;;;4.90;47.17;100308.88;5056108;28;46400;-71
2022/12/15 17:03:46;;;;;;;;;22.25;22.25;;;;;4.81;47.69;100274.63;5056722;28;45507;-69
2022/12/15 17:06:14;;;;;;;;;30.00;26.25;;;;;4.92;48.18;100299.94;5057290;28;45331;-70
2022/12/15 17:08:53;;;;;;;;;29.50;26.00;;;;;4.83;48.06;100283.41;5056138;28;45604;-69
2022/12/15 17:11:23;;;;;;;;;32.50;28.75;;;;;4.93;48.40;100303.47;5056720;28;45315;-69
2022/12/15 17:13:50;;;;;;;;;28.00;26.50;;;;;4.92;49.59;100302.59;5038208;28;46610;-71